createdAt,value
2022-12-07T00:01:45.058Z,26.98
2022-12-07T00:04:17.217Z,27.52
2022-12-07T00:06:47.825Z,24.83
2022-12-07T00:09:18.160Z,27.55
2022-12-07T00:11:49.041Z,28.30
2022-12-07T00:14:18.333Z,27.70
2022-12-07T00:16:46.613Z,32.67
2022-12-07T00:19:15.225Z,29.27
2022-12-07T00:21:42.982Z,29.65
2022-12-07T00:24:12.281Z,30.75
2022-12-07T00:26:42.085Z,27.67
2022-12-07T00:29:25.203Z,29.83
2022-12-07T00:31:52.471Z,30.20
2022-12-07T00:34:22.256Z,31.55
2022-12-07T00:36:50.701Z,30.30
2022-12-07T00:39:18.887Z,33.53
2022-12-07T00:41:46.489Z,31.38
2022-12-07T00:44:14.348Z,32.63
2022-12-07T00:46:41.680Z,26.80
2022-12-07T00:49:09.217Z,31.05
2022-12-07T00:51:36.558Z,31.98
2022-12-07T00:54:04.118Z,31.40
2022-12-07T00:56:31.499Z,32.30
2022-12-07T00:59:02.889Z,31.92
2022-12-07T01:01:35.815Z,29.63
2022-12-07T01:04:03.575Z,30.95
2022-12-07T01:06:31.888Z,30.90
2022-12-07T01:09:00.679Z,29.08
2022-12-07T01:11:30.901Z,32.22
2022-12-07T01:14:01.309Z,30.10
2022-12-07T01:16:31.501Z,31.35
2022-12-07T01:19:01.768Z,28.40
2022-12-07T01:21:38.828Z,31.42
2022-12-07T01:24:11.771Z,32.28
2022-12-07T01:26:39.456Z,31.23
2022-12-07T01:29:07.182Z,30.60
2022-12-07T01:31:34.949Z,35.17
2022-12-07T01:34:02.671Z,34.63
2022-12-07T01:36:35.166Z,38.10
2022-12-07T01:39:08.309Z,32.97
2022-12-07T01:41:44.618Z,36.00
2022-12-07T01:44:24.523Z,35.13
2022-12-07T01:46:53.051Z,38.15
2022-12-07T01:49:33.416Z,44.85
2022-12-07T01:52:26.872Z,40.40
2022-12-07T01:55:07.136Z,46.90
2022-12-07T01:57:41.119Z,46.40
2022-12-07T02:00:11.454Z,45.70
2022-12-07T02:02:49.138Z,42.88
2022-12-07T02:05:19.478Z,41.03
2022-12-07T02:07:50.199Z,41.72
2022-12-07T02:10:26.216Z,37.15
2022-12-07T02:13:21.318Z,35.42
2022-12-07T02:16:27.812Z,36.47
2022-12-07T02:19:50.036Z,38.22
2022-12-07T02:22:53.964Z,38.70
2022-12-07T02:26:04.733Z,41.65
2022-12-07T02:28:57.370Z,43.55
2022-12-07T02:31:29.206Z,45.00
2022-12-07T02:34:19.580Z,45.33
2022-12-07T02:36:57.954Z,40.15
2022-12-07T02:39:45.301Z,42.55
2022-12-07T02:42:27.784Z,47.53
2022-12-07T02:44:55.709Z,35.22
2022-12-07T02:47:27.498Z,39.47
2022-12-07T02:49:55.048Z,39.22
2022-12-07T02:52:22.367Z,42.40
2022-12-07T02:54:49.887Z,43.97
2022-12-07T02:57:44.512Z,40.22
2022-12-07T03:00:19.898Z,38.47
2022-12-07T03:03:12.533Z,40.78
2022-12-07T03:06:34.400Z,37.88
2022-12-07T03:09:25.660Z,36.70
2022-12-07T03:12:23.086Z,34.67
2022-12-07T03:15:10.225Z,34.20
2022-12-07T03:17:43.177Z,31.92
2022-12-07T03:20:17.397Z,29.75
2022-12-07T03:22:48.098Z,30.55
2022-12-07T03:25:18.199Z,33.35
2022-12-07T03:27:54.363Z,28.33
2022-12-07T03:30:32.467Z,29.02
2022-12-07T03:33:27.834Z,29.58
2022-12-07T03:36:30.163Z,26.60
2022-12-07T03:39:14.756Z,26.95
2022-12-07T03:41:45.168Z,28.35
2022-12-07T03:44:16.436Z,26.73
2022-12-07T03:47:15.295Z,27.02
2022-12-07T03:50:07.333Z,29.23
2022-12-07T03:53:04.629Z,27.25
2022-12-07T03:55:41.947Z,29.05
2022-12-07T03:58:18.977Z,32.28
2022-12-07T04:00:47.928Z,26.05
2022-12-07T04:03:15.390Z,32.28
2022-12-07T04:05:44.274Z,31.45
2022-12-07T04:08:11.568Z,36.50
2022-12-07T04:10:39.374Z,35.05
2022-12-07T04:13:06.744Z,39.67
2022-12-07T04:15:34.292Z,35.03
2022-12-07T04:18:01.533Z,38.63
2022-12-07T04:20:29.054Z,35.53
2022-12-07T04:22:56.318Z,37.90
2022-12-07T04:25:23.820Z,40.00
2022-12-07T04:27:51.125Z,34.95
2022-12-07T04:30:20.260Z,36.55
2022-12-07T04:32:47.536Z,33.95
2022-12-07T04:35:15.128Z,34.78
2022-12-07T04:37:43.066Z,31.90
2022-12-07T04:40:12.364Z,31.23
2022-12-07T04:42:39.779Z,27.00
2022-12-07T04:45:08.311Z,31.02
2022-12-07T04:47:35.554Z,28.08
2022-12-07T04:50:03.383Z,31.30
2022-12-07T04:52:30.787Z,36.00
2022-12-07T04:54:58.351Z,37.47
2022-12-07T04:57:25.702Z,31.42
2022-12-07T04:59:53.206Z,28.60
2022-12-07T05:02:20.563Z,29.00
2022-12-07T05:04:48.065Z,30.77
2022-12-07T05:07:15.407Z,28.63
2022-12-07T05:09:42.932Z,28.63
2022-12-07T05:12:10.384Z,30.25
2022-12-07T05:14:37.894Z,29.05
2022-12-07T05:17:05.338Z,33.17
2022-12-07T05:19:32.918Z,32.80
2022-12-07T05:22:00.191Z,33.47
2022-12-07T05:24:27.694Z,35.75
2022-12-07T05:26:54.941Z,41.50
2022-12-07T05:29:22.469Z,35.25
2022-12-07T05:31:49.834Z,28.45
2022-12-07T05:34:17.555Z,34.80
2022-12-07T05:36:44.869Z,29.75
2022-12-07T05:39:12.472Z,33.90
2022-12-07T05:41:58.528Z,36.97
2022-12-07T05:44:26.181Z,33.90
2022-12-07T05:46:53.432Z,35.20
2022-12-07T05:49:20.998Z,38.95
2022-12-07T05:51:48.294Z,39.85
2022-12-07T05:54:15.852Z,39.72
2022-12-07T05:56:43.071Z,36.67
2022-12-07T05:59:26.892Z,37.53
2022-12-07T06:01:58.708Z,34.25
2022-12-07T06:04:30.898Z,35.40
2022-12-07T06:06:58.410Z,40.92
2022-12-07T06:09:28.250Z,47.55
2022-12-07T06:12:15.517Z,40.00
2022-12-07T06:14:43.976Z,42.60
2022-12-07T06:17:13.127Z,40.67
2022-12-07T06:19:41.118Z,35.80
2022-12-07T06:22:10.219Z,31.67
2022-12-07T06:24:37.805Z,33.30
2022-12-07T06:27:05.777Z,27.83
2022-12-07T06:29:34.111Z,28.45
2022-12-07T06:32:01.671Z,23.83
2022-12-07T06:34:29.406Z,22.45
2022-12-07T06:36:56.873Z,22.15
2022-12-07T06:39:28.042Z,20.20
2022-12-07T06:41:55.756Z,23.73
2022-12-07T06:44:24.500Z,22.55
2022-12-07T06:47:06.726Z,20.80
2022-12-07T06:49:40.616Z,22.00
2022-12-07T06:52:07.932Z,20.20
2022-12-07T06:54:35.398Z,20.17
2022-12-07T06:57:02.673Z,20.13
2022-12-07T06:59:30.203Z,18.13
2022-12-07T07:01:57.474Z,15.45
2022-12-07T07:04:26.010Z,16.60
2022-12-07T07:06:59.602Z,20.02
2022-12-07T07:09:28.282Z,14.93
2022-12-07T07:11:56.444Z,18.08
2022-12-07T07:14:24.083Z,17.03
2022-12-07T07:16:51.504Z,18.70
2022-12-07T07:19:19.218Z,17.17
2022-12-07T07:21:46.581Z,15.60
2022-12-07T07:24:14.231Z,17.88
2022-12-07T07:26:41.490Z,17.17
2022-12-07T07:29:09.160Z,19.73
2022-12-07T07:31:36.817Z,18.75
2022-12-07T07:34:05.642Z,16.08
2022-12-07T07:36:33.822Z,20.50
2022-12-07T07:39:01.442Z,24.85
2022-12-07T07:41:29.045Z,24.13
2022-12-07T07:43:56.607Z,19.42
2022-12-07T07:46:24.161Z,21.20
2022-12-07T07:48:51.719Z,27.40
2022-12-07T07:51:18.981Z,21.10
2022-12-07T07:53:47.346Z,19.00
2022-12-07T07:56:14.599Z,22.35
2022-12-07T07:58:42.113Z,18.75
2022-12-07T08:01:09.899Z,18.95
2022-12-07T08:03:37.573Z,19.88
2022-12-07T08:06:05.511Z,23.27
2022-12-07T08:08:33.313Z,23.13
2022-12-07T08:11:02.568Z,23.88
2022-12-07T08:13:31.586Z,23.08
2022-12-07T08:16:00.036Z,22.02
2022-12-07T08:18:27.668Z,17.70
2022-12-07T08:21:04.807Z,19.02
2022-12-07T08:23:39.467Z,17.95
2022-12-07T08:26:15.424Z,17.70
2022-12-07T08:28:43.759Z,18.98
2022-12-07T08:31:18.940Z,21.58
2022-12-07T08:33:49.116Z,19.42
2022-12-07T08:36:18.250Z,18.42
2022-12-07T08:39:22.612Z,20.55
2022-12-07T08:41:35.254Z,23.05
2022-12-07T08:44:03.050Z,22.20
2022-12-07T08:46:55.036Z,25.65
2022-12-07T08:49:47.273Z,28.00
2022-12-07T08:52:14.696Z,36.55
2022-12-07T08:54:43.265Z,34.20
2022-12-07T08:57:12.043Z,42.35
2022-12-07T08:59:39.559Z,39.70
2022-12-07T09:02:07.721Z,31.85
2022-12-07T09:04:35.463Z,37.42
2022-12-07T09:07:02.965Z,33.92
2022-12-07T09:09:31.030Z,34.47
2022-12-07T09:11:58.743Z,40.97
2022-12-07T09:14:26.329Z,38.70
2022-12-07T09:16:53.563Z,37.05
2022-12-07T09:19:21.385Z,39.03
2022-12-07T09:21:48.673Z,38.67
2022-12-07T09:24:16.191Z,37.58
2022-12-07T09:26:43.545Z,41.30
2022-12-07T09:29:11.099Z,38.90
2022-12-07T09:31:39.602Z,41.33
2022-12-07T09:34:08.407Z,46.53
2022-12-07T09:36:36.142Z,41.03
2022-12-07T09:39:05.964Z,41.13
2022-12-07T09:41:34.212Z,40.95
2022-12-07T09:44:11.004Z,37.28
2022-12-07T09:46:44.251Z,31.67
2022-12-07T09:49:21.560Z,33.08
2022-12-07T09:52:00.192Z,32.45
2022-12-07T09:54:29.460Z,27.08
2022-12-07T09:56:56.730Z,25.80
2022-12-07T09:59:24.306Z,28.52
2022-12-07T10:01:51.839Z,26.67
2022-12-07T10:04:27.798Z,25.60
2022-12-07T10:06:55.097Z,23.08
2022-12-07T10:09:23.484Z,25.02
2022-12-07T10:12:12.747Z,22.70
2022-12-07T10:15:12.658Z,21.67
2022-12-07T10:17:48.207Z,25.23
2022-12-07T10:20:27.823Z,21.77
2022-12-07T10:23:14.582Z,20.95
2022-12-07T10:25:43.654Z,22.23
2022-12-07T10:28:19.584Z,18.45
2022-12-07T10:31:20.430Z,18.10
2022-12-07T10:33:58.350Z,20.40
2022-12-07T10:36:29.091Z,19.33
2022-12-07T10:39:16.325Z,16.52
2022-12-07T10:41:59.180Z,17.52
2022-12-07T10:44:35.642Z,19.92
2022-12-07T10:47:38.633Z,19.02
2022-12-07T10:50:32.183Z,15.75
2022-12-07T10:53:21.310Z,17.48
2022-12-07T10:56:12.888Z,17.00
2022-12-07T10:59:33.108Z,16.70
2022-12-07T11:02:14.235Z,15.65
2022-12-07T11:05:00.715Z,16.55
2022-12-07T11:07:55.213Z,15.25
2022-12-07T11:10:43.859Z,15.60
2022-12-07T11:13:29.343Z,15.55
2022-12-07T11:15:56.915Z,13.82
2022-12-07T11:19:06.308Z,15.80
2022-12-07T11:21:59.627Z,14.98
2022-12-07T11:25:04.092Z,17.42
2022-12-07T11:27:34.439Z,17.10
2022-12-07T11:30:24.828Z,15.30
2022-12-07T11:33:12.407Z,14.88
2022-12-07T11:36:03.850Z,17.92
2022-12-07T11:38:56.367Z,16.40
2022-12-07T11:41:39.131Z,18.35
2022-12-07T11:44:52.364Z,18.55
2022-12-07T11:47:57.040Z,16.17
2022-12-07T11:50:43.608Z,16.48
2022-12-07T11:53:16.617Z,19.10
2022-12-07T11:56:04.567Z,15.90
2022-12-07T11:58:34.773Z,15.48
2022-12-07T12:01:44.598Z,13.32
2022-12-07T12:04:11.811Z,14.70
2022-12-07T12:06:45.483Z,11.15
2022-12-07T12:15:58.911Z,10.88
2022-12-07T12:19:02.454Z,8.80
2022-12-07T12:21:33.413Z,8.63
2022-12-07T12:24:12.335Z,9.35
2022-12-07T12:26:49.326Z,8.60
2022-12-07T12:29:33.169Z,9.00
2022-12-07T12:32:16.514Z,10.15
2022-12-07T12:35:02.714Z,10.52
2022-12-07T12:37:36.300Z,10.05
2022-12-07T12:40:16.534Z,10.95
2022-12-07T12:42:52.263Z,12.00
2022-12-07T12:45:33.675Z,12.63
2022-12-07T12:48:26.178Z,13.30
2022-12-07T12:51:40.610Z,12.23
2022-12-07T12:54:19.014Z,13.77
2022-12-07T12:56:59.195Z,16.45
2022-12-07T12:59:33.161Z,12.45
2022-12-07T13:02:27.675Z,14.00
2022-12-07T13:05:04.958Z,16.05
2022-12-07T13:07:53.909Z,15.48
2022-12-07T13:10:36.193Z,13.88
2022-12-07T13:13:13.712Z,15.80
2022-12-07T13:16:10.198Z,14.32
2022-12-07T13:18:39.738Z,15.02
2022-12-07T13:21:09.891Z,17.15
2022-12-07T13:23:41.629Z,15.23
2022-12-07T13:26:31.569Z,14.35
2022-12-07T13:29:10.830Z,11.00
2022-12-07T13:32:02.616Z,13.02
2022-12-07T13:34:38.006Z,14.55
2022-12-07T13:37:17.026Z,15.05
2022-12-07T13:39:55.535Z,14.10
2022-12-07T13:42:30.940Z,14.15
2022-12-07T13:45:02.514Z,13.00
2022-12-07T13:47:37.826Z,16.77
2022-12-07T13:50:28.644Z,15.52
2022-12-07T13:53:01.782Z,13.73
2022-12-07T13:55:31.052Z,13.07
2022-12-07T13:57:59.088Z,15.88
2022-12-07T14:00:30.817Z,14.07
2022-12-07T14:03:04.752Z,12.10
2022-12-07T14:05:35.664Z,14.10
2022-12-07T14:08:23.469Z,13.27
2022-12-07T14:10:51.074Z,13.75
2022-12-07T14:13:50.628Z,11.10
2022-12-07T14:16:33.850Z,13.50
2022-12-07T14:19:05.098Z,13.52
2022-12-07T14:21:36.010Z,12.27
2022-12-07T14:24:19.385Z,16.52
2022-12-07T14:26:50.427Z,17.35
2022-12-07T14:29:28.023Z,19.48
2022-12-07T14:31:56.778Z,18.30
2022-12-07T14:34:25.117Z,16.92
2022-12-07T14:36:52.888Z,19.00
2022-12-07T14:39:20.454Z,18.55
2022-12-07T14:41:54.240Z,19.83
2022-12-07T14:44:28.224Z,25.02
2022-12-07T14:49:47.080Z,25.80
2022-12-07T14:55:27.450Z,21.98
2022-12-07T14:57:56.673Z,20.00
2022-12-07T15:00:27.515Z,19.80
2022-12-07T15:02:56.339Z,17.23
2022-12-07T15:05:24.575Z,17.60
2022-12-07T15:07:53.365Z,20.52
2022-12-07T15:10:32.747Z,19.08
2022-12-07T15:13:21.062Z,17.67
2022-12-07T15:15:54.219Z,18.15
2022-12-07T15:18:23.784Z,19.98
2022-12-07T15:20:52.604Z,21.15
2022-12-07T15:23:20.352Z,20.83
2022-12-07T15:25:49.569Z,19.45
2022-12-07T15:28:17.627Z,17.30
2022-12-07T15:30:45.847Z,20.60
2022-12-07T15:33:14.247Z,20.83
2022-12-07T15:35:43.974Z,22.02
2022-12-07T15:38:12.382Z,15.52
2022-12-07T15:40:40.934Z,12.95
2022-12-07T15:43:31.112Z,16.55
2022-12-07T15:45:58.732Z,17.80
2022-12-07T15:48:28.371Z,23.50
2022-12-07T15:51:08.067Z,26.20
2022-12-07T15:53:44.454Z,28.02
2022-12-07T15:56:11.750Z,26.02
2022-12-07T15:58:39.316Z,21.98
2022-12-07T16:01:19.139Z,23.73
2022-12-07T16:03:47.599Z,25.58
2022-12-07T16:06:19.003Z,26.23
2022-12-07T16:08:47.840Z,21.88
2022-12-07T16:11:15.241Z,23.15
2022-12-07T16:13:42.900Z,25.00
2022-12-07T16:16:16.595Z,27.52
2022-12-07T16:18:46.363Z,23.85
2022-12-07T16:21:18.120Z,23.20
2022-12-07T16:23:48.035Z,28.10
2022-12-07T16:26:20.073Z,24.20
2022-12-07T16:28:51.228Z,26.88
2022-12-07T16:31:22.381Z,24.67
2022-12-07T16:33:51.349Z,30.80
2022-12-07T16:36:40.038Z,28.23
2022-12-07T16:39:07.680Z,32.47
2022-12-07T16:41:34.934Z,34.00
2022-12-07T16:44:06.916Z,37.15
2022-12-07T16:46:36.817Z,36.55
2022-12-07T16:49:05.634Z,32.22
2022-12-07T16:51:35.732Z,31.75
2022-12-07T16:54:03.372Z,29.00
2022-12-07T16:56:30.712Z,30.63
2022-12-07T16:59:02.290Z,30.55
2022-12-07T17:01:30.542Z,27.13
2022-12-07T17:03:59.732Z,26.02
2022-12-07T17:06:30.224Z,30.73
2022-12-07T17:08:58.330Z,27.08
2022-12-07T17:11:29.815Z,25.77
2022-12-07T17:14:16.743Z,24.52
2022-12-07T17:16:44.340Z,23.48
2022-12-07T17:19:16.516Z,25.33
2022-12-07T17:21:44.867Z,21.40
2022-12-07T17:24:16.336Z,22.95
2022-12-07T17:26:46.488Z,21.73
2022-12-07T17:29:16.937Z,20.70
2022-12-07T17:31:50.998Z,22.60
2022-12-07T17:34:19.987Z,21.45
2022-12-07T17:36:48.148Z,23.77
2022-12-07T17:39:18.989Z,22.48
2022-12-07T17:42:05.088Z,30.15
2022-12-07T17:44:33.192Z,21.92
2022-12-07T17:47:02.777Z,24.75
2022-12-07T17:49:30.987Z,22.92
2022-12-07T17:52:16.870Z,21.08
2022-12-07T17:54:44.591Z,21.58
2022-12-07T17:57:11.952Z,22.98
2022-12-07T17:59:39.523Z,23.67
2022-12-07T18:02:07.361Z,21.42
2022-12-07T18:04:35.040Z,21.08
2022-12-07T18:07:02.545Z,23.80
2022-12-07T18:09:30.161Z,25.52
2022-12-07T18:11:57.410Z,28.05
2022-12-07T18:14:25.019Z,23.45
2022-12-07T18:16:52.348Z,22.17
2022-12-07T18:19:20.224Z,21.23
2022-12-07T18:21:47.982Z,22.00
2022-12-07T18:24:17.920Z,20.85
2022-12-07T18:26:48.342Z,21.50
2022-12-07T18:29:18.260Z,22.30
2022-12-07T18:31:47.761Z,21.65
2022-12-07T18:34:18.708Z,22.42
2022-12-07T18:36:50.538Z,25.83
2022-12-07T18:39:19.453Z,24.38
2022-12-07T18:41:47.785Z,24.42
2022-12-07T18:44:17.090Z,25.23
2022-12-07T18:46:44.791Z,23.45
2022-12-07T18:49:14.479Z,24.83
2022-12-07T18:51:43.178Z,26.23
2022-12-07T18:54:11.300Z,24.52
2022-12-07T18:56:38.981Z,27.30
2022-12-07T18:59:25.658Z,24.13
2022-12-07T19:01:55.185Z,25.90
2022-12-07T19:04:23.114Z,25.95
2022-12-07T19:06:51.155Z,29.50
2022-12-07T19:09:20.454Z,28.80
2022-12-07T19:11:51.640Z,28.40
2022-12-07T19:14:29.279Z,24.67
2022-12-07T19:17:02.654Z,30.98
2022-12-07T19:19:43.781Z,24.05
2022-12-07T19:22:19.399Z,20.80
2022-12-07T19:24:52.284Z,23.40
2022-12-07T19:27:21.619Z,24.63
2022-12-07T19:29:50.848Z,26.15
2022-12-07T19:32:18.499Z,24.15
2022-12-07T19:34:48.692Z,24.25
2022-12-07T19:37:16.759Z,26.45
2022-12-07T19:39:44.622Z,23.40
2022-12-07T19:42:12.171Z,25.42
2022-12-07T19:44:40.110Z,25.35
2022-12-07T19:47:07.462Z,26.27
2022-12-07T19:49:36.342Z,21.67
2022-12-07T19:52:07.938Z,22.80
2022-12-07T19:54:36.982Z,25.00
2022-12-07T19:57:07.257Z,24.20
2022-12-07T19:59:35.358Z,26.17
2022-12-07T20:02:03.083Z,26.45
2022-12-07T20:04:35.722Z,32.20
2022-12-07T20:07:04.079Z,26.70
2022-12-07T20:09:31.769Z,25.55
2022-12-07T20:12:17.901Z,29.85
2022-12-07T20:14:45.704Z,22.42
2022-12-07T20:17:13.509Z,26.92
2022-12-07T20:19:41.294Z,27.33
2022-12-07T20:22:09.330Z,25.02
2022-12-07T20:24:37.236Z,27.50
2022-12-07T20:27:06.315Z,27.40
2022-12-07T20:29:34.463Z,31.27
2022-12-07T20:32:02.561Z,29.35
2022-12-07T20:34:30.361Z,32.58
2022-12-07T20:36:57.795Z,29.38
2022-12-07T20:39:25.422Z,32.88
2022-12-07T20:42:11.410Z,30.38
2022-12-07T20:44:39.065Z,32.90
2022-12-07T20:47:07.138Z,33.00
2022-12-07T20:49:35.163Z,34.05
2022-12-07T20:52:03.306Z,33.92
2022-12-07T20:54:31.155Z,37.38
2022-12-07T20:56:58.788Z,35.65
2022-12-07T20:59:26.454Z,39.95
2022-12-07T21:01:53.860Z,42.17
2022-12-07T21:04:21.471Z,40.78
2022-12-07T21:06:48.985Z,35.95
2022-12-07T21:09:16.594Z,36.58
2022-12-07T21:11:43.862Z,28.65
2022-12-07T21:14:11.424Z,35.13
2022-12-07T21:16:38.627Z,34.78
2022-12-07T21:19:06.341Z,27.92
2022-12-07T21:21:34.351Z,26.17
2022-12-07T21:24:04.970Z,24.45
2022-12-07T21:26:36.764Z,27.88
2022-12-07T21:29:08.080Z,27.25
2022-12-07T21:31:36.145Z,26.55
2022-12-07T21:34:05.149Z,27.27
2022-12-07T21:36:33.573Z,26.88
2022-12-07T21:39:01.711Z,26.95
2022-12-07T21:41:32.710Z,23.58
2022-12-07T21:44:05.214Z,26.52
2022-12-07T21:46:34.564Z,25.83
2022-12-07T21:49:11.585Z,29.08
2022-12-07T21:51:41.332Z,23.88
2022-12-07T21:54:12.141Z,24.95
2022-12-07T21:56:42.595Z,24.45
2022-12-07T21:59:18.044Z,29.40
2022-12-07T22:01:47.484Z,28.27
2022-12-07T22:04:22.431Z,25.00
2022-12-07T22:06:51.304Z,23.73
2022-12-07T22:09:19.973Z,23.55
2022-12-07T22:11:47.576Z,27.17
2022-12-07T22:14:33.663Z,25.58
2022-12-07T22:17:00.991Z,26.55
2022-12-07T22:19:28.684Z,26.20
2022-12-07T22:21:56.029Z,27.48
2022-12-07T22:24:23.787Z,28.25
2022-12-07T22:26:51.186Z,25.70
2022-12-07T22:29:18.747Z,24.10
2022-12-07T22:31:50.497Z,26.00
2022-12-07T22:34:21.114Z,22.10
2022-12-07T22:36:48.747Z,20.77
2022-12-07T22:39:16.732Z,21.27
2022-12-07T22:41:44.328Z,24.50
2022-12-07T22:44:12.234Z,23.27
2022-12-07T22:46:39.919Z,21.70
2022-12-07T22:49:08.069Z,19.60
2022-12-07T22:51:38.696Z,24.48
2022-12-07T22:54:10.978Z,23.10
2022-12-07T22:56:38.761Z,22.17
2022-12-07T22:59:08.475Z,21.73
2022-12-07T23:01:36.252Z,25.25
2022-12-07T23:04:04.194Z,22.85
2022-12-07T23:06:34.701Z,21.58
2022-12-07T23:09:07.102Z,22.85
2022-12-07T23:11:57.253Z,22.60
2022-12-07T23:14:35.152Z,20.48
2022-12-07T23:17:03.793Z,22.63
2022-12-07T23:19:31.596Z,27.02
2022-12-07T23:21:58.851Z,23.30
2022-12-07T23:24:27.275Z,23.13
2022-12-07T23:26:54.771Z,22.70
2022-12-07T23:29:22.356Z,21.92
2022-12-07T23:31:50.100Z,21.67
2022-12-07T23:34:17.844Z,20.45
2022-12-07T23:36:45.508Z,20.65
2022-12-07T23:39:13.352Z,23.88
2022-12-07T23:41:40.868Z,20.60
2022-12-07T23:44:08.631Z,19.25
2022-12-07T23:46:35.941Z,24.08
2022-12-07T23:49:06.330Z,24.08
2022-12-07T23:51:34.222Z,22.30
2022-12-07T23:54:02.621Z,22.75
2022-12-07T23:56:33.074Z,21.83
2022-12-07T23:59:01.969Z,24.17
